sensor_id;sensor_type;location;lat;lon;timestamp;temperature;humidity
64143;DHT22;50437;51.970;5.904;2022-12-18T00:01:26;-4.40;99.90
64143;DHT22;50437;51.970;5.904;2022-12-18T00:03:52;-4.40;99.90
64143;DHT22;50437;51.970;5.904;2022-12-18T00:06:19;-4.40;99.90
64143;DHT22;50437;51.970;5.904;2022-12-18T00:08:45;-4.40;99.90
64143;DHT22;50437;51.970;5.904;2022-12-18T00:11:16;-4.40;99.90
64143;DHT22;50437;51.970;5.904;2022-12-18T00:13:42;-4.50;99.90
64143;DHT22;50437;51.970;5.904;2022-12-18T00:16:10;-4.60;99.90
64143;DHT22;50437;51.970;5.904;2022-12-18T00:18:36;-4.60;99.90
64143;DHT22;50437;51.970;5.904;2022-12-18T00:21:03;-4.60;99.90
64143;DHT22;50437;51.970;5.904;2022-12-18T00:23:29;-4.60;99.90
64143;DHT22;50437;51.970;5.904;2022-12-18T00:26:02;-4.70;99.90
64143;DHT22;50437;51.970;5.904;2022-12-18T00:28:30;-4.70;99.90
64143;DHT22;50437;51.970;5.904;2022-12-18T00:31:06;-4.70;99.90
64143;DHT22;50437;51.970;5.904;2022-12-18T00:33:32;-4.70;99.90
64143;DHT22;50437;51.970;5.904;2022-12-18T00:36:05;-4.70;99.90
64143;DHT22;50437;51.970;5.904;2022-12-18T00:38:32;-4.70;99.90
64143;DHT22;50437;51.970;5.904;2022-12-18T00:40:58;-4.80;99.90
64143;DHT22;50437;51.970;5.904;2022-12-18T00:43:24;-4.80;99.90
64143;DHT22;50437;51.970;5.904;2022-12-18T00:45:51;-4.80;99.90
64143;DHT22;50437;51.970;5.904;2022-12-18T00:48:17;-4.80;99.90
64143;DHT22;50437;51.970;5.904;2022-12-18T00:50:43;-4.80;99.90
64143;DHT22;50437;51.970;5.904;2022-12-18T00:53:11;-4.80;99.90
64143;DHT22;50437;51.970;5.904;2022-12-18T00:55:39;-4.80;99.90
64143;DHT22;50437;51.970;5.904;2022-12-18T00:58:05;-4.80;99.90
64143;DHT22;50437;51.970;5.904;2022-12-18T01:00:31;-4.80;99.90
64143;DHT22;50437;51.970;5.904;2022-12-18T01:02:57;-4.90;99.90
64143;DHT22;50437;51.970;5.904;2022-12-18T01:05:24;-4.90;99.90
64143;DHT22;50437;51.970;5.904;2022-12-18T01:07:50;-4.90;99.90
64143;DHT22;50437;51.970;5.904;2022-12-18T01:10:16;-5.00;99.90
64143;DHT22;50437;51.970;5.904;2022-12-18T01:12:42;-5.00;99.90
64143;DHT22;50437;51.970;5.904;2022-12-18T01:15:10;-5.00;99.90
64143;DHT22;50437;51.970;5.904;2022-12-18T01:17:37;-5.10;99.90
64143;DHT22;50437;51.970;5.904;2022-12-18T01:20:03;-5.00;99.90
64143;DHT22;50437;51.970;5.904;2022-12-18T01:22:29;-5.00;99.90
64143;DHT22;50437;51.970;5.904;2022-12-18T01:24:55;-5.10;99.90
64143;DHT22;50437;51.970;5.904;2022-12-18T01:27:22;-5.10;99.90
64143;DHT22;50437;51.970;5.904;2022-12-18T01:29:48;-5.10;99.90
64143;DHT22;50437;51.970;5.904;2022-12-18T01:32:14;-5.10;99.90
64143;DHT22;50437;51.970;5.904;2022-12-18T01:34:40;-5.10;99.90
64143;DHT22;50437;51.970;5.904;2022-12-18T01:37:06;-5.10;99.90
64143;DHT22;50437;51.970;5.904;2022-12-18T01:39:32;-5.10;99.90
64143;DHT22;50437;51.970;5.904;2022-12-18T01:41:59;-5.10;99.90
64143;DHT22;50437;51.970;5.904;2022-12-18T01:47:23;-5.20;99.90
64143;DHT22;50437;51.970;5.904;2022-12-18T01:49:50;-5.10;99.90
64143;DHT22;50437;51.970;5.904;2022-12-18T01:52:17;-5.20;99.90
64143;DHT22;50437;51.970;5.904;2022-12-18T01:54:43;-5.20;99.90
64143;DHT22;50437;51.970;5.904;2022-12-18T01:57:09;-5.20;99.90
64143;DHT22;50437;51.970;5.904;2022-12-18T01:59:35;-5.20;99.90
64143;DHT22;50437;51.970;5.904;2022-12-18T02:02:02;-5.20;99.90
64143;DHT22;50437;51.970;5.904;2022-12-18T02:04:29;-5.30;99.90
64143;DHT22;50437;51.970;5.904;2022-12-18T02:06:58;-5.30;99.90
64143;DHT22;50437;51.970;5.904;2022-12-18T02:09:31;-5.30;99.90
64143;DHT22;50437;51.970;5.904;2022-12-18T02:17:03;-5.30;99.90
64143;DHT22;50437;51.970;5.904;2022-12-18T02:27:27;-5.40;99.90
64143;DHT22;50437;51.970;5.904;2022-12-18T02:29:55;-5.50;99.90
64143;DHT22;50437;51.970;5.904;2022-12-18T02:32:24;-5.40;99.90
64143;DHT22;50437;51.970;5.904;2022-12-18T02:34:51;-5.50;99.90
64143;DHT22;50437;51.970;5.904;2022-12-18T02:37:21;-5.40;99.90
64143;DHT22;50437;51.970;5.904;2022-12-18T02:39:49;-5.50;99.90
64143;DHT22;50437;51.970;5.904;2022-12-18T02:42:17;-5.50;99.90
64143;DHT22;50437;51.970;5.904;2022-12-18T02:44:45;-5.50;99.90
64143;DHT22;50437;51.970;5.904;2022-12-18T02:47:13;-5.50;99.90
64143;DHT22;50437;51.970;5.904;2022-12-18T02:49:44;-5.50;99.90
64143;DHT22;50437;51.970;5.904;2022-12-18T02:54:59;-5.60;99.90
64143;DHT22;50437;51.970;5.904;2022-12-18T02:57:34;-5.60;99.90
64143;DHT22;50437;51.970;5.904;2022-12-18T03:02:35;-5.50;99.90
64143;DHT22;50437;51.970;5.904;2022-12-18T03:07:40;-5.60;99.90
64143;DHT22;50437;51.970;5.904;2022-12-18T03:10:11;-5.60;99.90
64143;DHT22;50437;51.970;5.904;2022-12-18T03:12:40;-5.60;99.90
64143;DHT22;50437;51.970;5.904;2022-12-18T03:17:56;-5.60;99.90
64143;DHT22;50437;51.970;5.904;2022-12-18T03:20:25;-5.60;99.90
64143;DHT22;50437;51.970;5.904;2022-12-18T03:22:53;-5.70;99.90
64143;DHT22;50437;51.970;5.904;2022-12-18T03:25:22;-5.60;99.90
64143;DHT22;50437;51.970;5.904;2022-12-18T03:27:54;-5.70;99.90
64143;DHT22;50437;51.970;5.904;2022-12-18T03:30:23;-5.70;99.90
64143;DHT22;50437;51.970;5.904;2022-12-18T03:33:08;-5.80;99.90
64143;DHT22;50437;51.970;5.904;2022-12-18T03:35:39;-5.70;99.90
64143;DHT22;50437;51.970;5.904;2022-12-18T03:38:06;-5.70;99.90
64143;DHT22;50437;51.970;5.904;2022-12-18T03:40:45;-5.70;99.90
64143;DHT22;50437;51.970;5.904;2022-12-18T03:43:18;-5.70;99.90
64143;DHT22;50437;51.970;5.904;2022-12-18T03:46:02;-5.70;99.90
64143;DHT22;50437;51.970;5.904;2022-12-18T03:48:37;-5.70;99.90
64143;DHT22;50437;51.970;5.904;2022-12-18T03:51:17;-5.80;99.90
64143;DHT22;50437;51.970;5.904;2022-12-18T03:53:55;-5.80;99.90
64143;DHT22;50437;51.970;5.904;2022-12-18T03:56:28;-5.80;99.90
64143;DHT22;50437;51.970;5.904;2022-12-18T03:58:55;-5.90;99.90
64143;DHT22;50437;51.970;5.904;2022-12-18T04:01:28;-5.80;99.90
64143;DHT22;50437;51.970;5.904;2022-12-18T04:03:56;-5.80;99.90
64143;DHT22;50437;51.970;5.904;2022-12-18T04:06:23;-5.80;99.90
64143;DHT22;50437;51.970;5.904;2022-12-18T04:08:51;-5.80;99.90
64143;DHT22;50437;51.970;5.904;2022-12-18T04:11:21;-5.70;99.90
64143;DHT22;50437;51.970;5.904;2022-12-18T04:13:47;-5.70;99.90
64143;DHT22;50437;51.970;5.904;2022-12-18T04:16:21;-5.70;99.90
64143;DHT22;50437;51.970;5.904;2022-12-18T04:18:52;-5.60;99.90
64143;DHT22;50437;51.970;5.904;2022-12-18T04:21:19;-5.60;99.90
64143;DHT22;50437;51.970;5.904;2022-12-18T04:23:47;-5.60;99.90
64143;DHT22;50437;51.970;5.904;2022-12-18T04:26:13;-5.60;99.90
64143;DHT22;50437;51.970;5.904;2022-12-18T04:29:07;-5.70;99.90
64143;DHT22;50437;51.970;5.904;2022-12-18T04:31:33;-5.70;99.90
64143;DHT22;50437;51.970;5.904;2022-12-18T04:33:59;-5.60;99.90
64143;DHT22;50437;51.970;5.904;2022-12-18T04:36:25;-5.70;99.90
64143;DHT22;50437;51.970;5.904;2022-12-18T04:38:52;-5.60;99.90
64143;DHT22;50437;51.970;5.904;2022-12-18T04:41:18;-5.60;99.90
64143;DHT22;50437;51.970;5.904;2022-12-18T04:43:46;-5.60;99.90
64143;DHT22;50437;51.970;5.904;2022-12-18T04:46:12;-5.50;99.90
64143;DHT22;50437;51.970;5.904;2022-12-18T04:48:38;-5.60;99.90
64143;DHT22;50437;51.970;5.904;2022-12-18T04:51:05;-5.60;99.90
64143;DHT22;50437;51.970;5.904;2022-12-18T04:53:31;-5.70;99.90
64143;DHT22;50437;51.970;5.904;2022-12-18T04:56:07;-5.60;99.90
64143;DHT22;50437;51.970;5.904;2022-12-18T04:58:34;-5.70;99.90
64143;DHT22;50437;51.970;5.904;2022-12-18T05:01:00;-5.70;99.90
64143;DHT22;50437;51.970;5.904;2022-12-18T05:03:26;-5.70;99.90
64143;DHT22;50437;51.970;5.904;2022-12-18T05:05:52;-5.70;99.90
64143;DHT22;50437;51.970;5.904;2022-12-18T05:08:18;-5.70;99.90
64143;DHT22;50437;51.970;5.904;2022-12-18T05:10:44;-5.80;99.90
64143;DHT22;50437;51.970;5.904;2022-12-18T05:13:10;-5.90;99.90
64143;DHT22;50437;51.970;5.904;2022-12-18T05:15:36;-5.80;99.90
64143;DHT22;50437;51.970;5.904;2022-12-18T05:18:02;-5.80;99.90
64143;DHT22;50437;51.970;5.904;2022-12-18T05:20:28;-5.70;99.90
64143;DHT22;50437;51.970;5.904;2022-12-18T05:22:54;-5.80;99.90
64143;DHT22;50437;51.970;5.904;2022-12-18T05:25:20;-5.90;99.90
64143;DHT22;50437;51.970;5.904;2022-12-18T05:27:47;-5.90;99.90
64143;DHT22;50437;51.970;5.904;2022-12-18T05:30:13;-5.90;99.90
64143;DHT22;50437;51.970;5.904;2022-12-18T05:32:39;-5.90;99.90
64143;DHT22;50437;51.970;5.904;2022-12-18T05:35:06;-5.80;99.90
64143;DHT22;50437;51.970;5.904;2022-12-18T05:37:32;-5.80;99.90
64143;DHT22;50437;51.970;5.904;2022-12-18T05:39:58;-5.90;99.90
64143;DHT22;50437;51.970;5.904;2022-12-18T05:42:24;-5.80;99.90
64143;DHT22;50437;51.970;5.904;2022-12-18T05:44:50;-5.90;99.90
64143;DHT22;50437;51.970;5.904;2022-12-18T05:47:16;-5.90;99.90
64143;DHT22;50437;51.970;5.904;2022-12-18T05:49:42;-5.90;99.90
64143;DHT22;50437;51.970;5.904;2022-12-18T05:52:08;-5.90;99.90
64143;DHT22;50437;51.970;5.904;2022-12-18T05:54:34;-5.90;99.90
64143;DHT22;50437;51.970;5.904;2022-12-18T05:57:00;-5.90;99.90
64143;DHT22;50437;51.970;5.904;2022-12-18T05:59:26;-5.90;99.90
64143;DHT22;50437;51.970;5.904;2022-12-18T06:01:52;-5.90;99.90
64143;DHT22;50437;51.970;5.904;2022-12-18T06:04:18;-5.90;99.90
64143;DHT22;50437;51.970;5.904;2022-12-18T06:06:44;-5.90;99.90
64143;DHT22;50437;51.970;5.904;2022-12-18T06:09:10;-5.90;99.90
64143;DHT22;50437;51.970;5.904;2022-12-18T06:11:36;-5.90;99.90
64143;DHT22;50437;51.970;5.904;2022-12-18T06:14:03;-5.90;99.90
64143;DHT22;50437;51.970;5.904;2022-12-18T06:16:29;-5.90;99.90
64143;DHT22;50437;51.970;5.904;2022-12-18T06:18:56;-5.80;99.90
64143;DHT22;50437;51.970;5.904;2022-12-18T06:21:22;-5.90;99.90
64143;DHT22;50437;51.970;5.904;2022-12-18T06:23:48;-5.90;99.90
64143;DHT22;50437;51.970;5.904;2022-12-18T06:26:14;-5.90;99.90
64143;DHT22;50437;51.970;5.904;2022-12-18T06:28:40;-5.90;99.90
64143;DHT22;50437;51.970;5.904;2022-12-18T06:31:06;-5.90;99.90
64143;DHT22;50437;51.970;5.904;2022-12-18T06:33:33;-5.90;99.90
64143;DHT22;50437;51.970;5.904;2022-12-18T06:36:03;-5.90;99.90
64143;DHT22;50437;51.970;5.904;2022-12-18T06:38:29;-5.90;99.90
64143;DHT22;50437;51.970;5.904;2022-12-18T06:40:56;-5.90;99.90
64143;DHT22;50437;51.970;5.904;2022-12-18T06:43:22;-5.90;99.90
64143;DHT22;50437;51.970;5.904;2022-12-18T06:45:48;-5.90;99.90
64143;DHT22;50437;51.970;5.904;2022-12-18T06:48:18;-5.90;99.90
64143;DHT22;50437;51.970;5.904;2022-12-18T06:50:45;-5.90;99.90
64143;DHT22;50437;51.970;5.904;2022-12-18T06:53:11;-5.90;99.90
64143;DHT22;50437;51.970;5.904;2022-12-18T06:55:37;-5.90;99.90
64143;DHT22;50437;51.970;5.904;2022-12-18T06:58:03;-5.90;99.90
64143;DHT22;50437;51.970;5.904;2022-12-18T07:00:29;-5.80;99.90
64143;DHT22;50437;51.970;5.904;2022-12-18T07:02:55;-5.80;99.90
64143;DHT22;50437;51.970;5.904;2022-12-18T07:05:24;-5.70;99.90
64143;DHT22;50437;51.970;5.904;2022-12-18T07:07:50;-5.70;99.90
64143;DHT22;50437;51.970;5.904;2022-12-18T07:10:16;-5.70;99.90
64143;DHT22;50437;51.970;5.904;2022-12-18T07:12:42;-5.60;99.90
64143;DHT22;50437;51.970;5.904;2022-12-18T07:15:08;-5.60;99.90
64143;DHT22;50437;51.970;5.904;2022-12-18T07:17:34;-5.60;99.90
64143;DHT22;50437;51.970;5.904;2022-12-18T07:20:00;-5.50;99.90
64143;DHT22;50437;51.970;5.904;2022-12-18T07:22:26;-5.50;99.90
64143;DHT22;50437;51.970;5.904;2022-12-18T07:24:52;-5.50;99.90
64143;DHT22;50437;51.970;5.904;2022-12-18T07:27:18;-5.50;99.90
64143;DHT22;50437;51.970;5.904;2022-12-18T07:29:44;-5.40;99.90
64143;DHT22;50437;51.970;5.904;2022-12-18T07:32:10;-5.40;99.90
64143;DHT22;50437;51.970;5.904;2022-12-18T07:34:36;-5.40;99.90
64143;DHT22;50437;51.970;5.904;2022-12-18T07:37:05;-5.30;99.90
64143;DHT22;50437;51.970;5.904;2022-12-18T07:39:31;-5.30;99.90
64143;DHT22;50437;51.970;5.904;2022-12-18T07:41:57;-5.30;99.90
64143;DHT22;50437;51.970;5.904;2022-12-18T07:44:41;-5.30;99.90
64143;DHT22;50437;51.970;5.904;2022-12-18T07:47:08;-5.20;99.90
64143;DHT22;50437;51.970;5.904;2022-12-18T07:49:34;-5.10;99.90
64143;DHT22;50437;51.970;5.904;2022-12-18T07:52:00;-5.10;99.90
64143;DHT22;50437;51.970;5.904;2022-12-18T07:54:27;-5.10;99.90
64143;DHT22;50437;51.970;5.904;2022-12-18T07:56:55;-5.10;99.90
64143;DHT22;50437;51.970;5.904;2022-12-18T07:59:21;-5.10;99.90
64143;DHT22;50437;51.970;5.904;2022-12-18T08:01:47;-5.00;99.90
64143;DHT22;50437;51.970;5.904;2022-12-18T08:04:13;-5.00;99.90
64143;DHT22;50437;51.970;5.904;2022-12-18T08:06:39;-4.90;99.90
64143;DHT22;50437;51.970;5.904;2022-12-18T08:09:05;-4.90;99.90
64143;DHT22;50437;51.970;5.904;2022-12-18T08:11:31;-4.90;99.90
64143;DHT22;50437;51.970;5.904;2022-12-18T08:13:57;-4.80;99.90
64143;DHT22;50437;51.970;5.904;2022-12-18T08:16:23;-4.70;99.90
64143;DHT22;50437;51.970;5.904;2022-12-18T08:18:50;-4.70;99.90
64143;DHT22;50437;51.970;5.904;2022-12-18T08:21:27;-4.60;99.90
64143;DHT22;50437;51.970;5.904;2022-12-18T08:23:54;-4.50;99.90
64143;DHT22;50437;51.970;5.904;2022-12-18T08:26:22;-4.50;99.90
64143;DHT22;50437;51.970;5.904;2022-12-18T08:28:49;-4.40;99.90
64143;DHT22;50437;51.970;5.904;2022-12-18T08:31:15;-4.40;99.90
64143;DHT22;50437;51.970;5.904;2022-12-18T08:33:41;-4.30;99.90
64143;DHT22;50437;51.970;5.904;2022-12-18T08:36:08;-4.30;99.90
64143;DHT22;50437;51.970;5.904;2022-12-18T08:38:34;-4.20;99.90
64143;DHT22;50437;51.970;5.904;2022-12-18T08:41:04;-4.10;99.90
64143;DHT22;50437;51.970;5.904;2022-12-18T08:43:30;-4.00;99.90
64143;DHT22;50437;51.970;5.904;2022-12-18T08:46:14;-4.00;99.90
64143;DHT22;50437;51.970;5.904;2022-12-18T08:48:40;-4.00;99.90
64143;DHT22;50437;51.970;5.904;2022-12-18T08:51:06;-3.90;99.90
64143;DHT22;50437;51.970;5.904;2022-12-18T08:53:32;-3.70;99.90
64143;DHT22;50437;51.970;5.904;2022-12-18T08:56:01;-3.80;99.90
64143;DHT22;50437;51.970;5.904;2022-12-18T08:58:27;-3.70;99.90
64143;DHT22;50437;51.970;5.904;2022-12-18T09:00:53;-3.70;99.90
64143;DHT22;50437;51.970;5.904;2022-12-18T09:03:19;-3.70;99.90
64143;DHT22;50437;51.970;5.904;2022-12-18T09:05:45;-3.50;99.90
64143;DHT22;50437;51.970;5.904;2022-12-18T09:08:14;-3.50;99.90
64143;DHT22;50437;51.970;5.904;2022-12-18T09:10:43;-3.40;99.90
64143;DHT22;50437;51.970;5.904;2022-12-18T09:13:13;-3.40;99.90
64143;DHT22;50437;51.970;5.904;2022-12-18T09:15:42;-3.30;99.90
64143;DHT22;50437;51.970;5.904;2022-12-18T09:18:08;-3.20;99.90
64143;DHT22;50437;51.970;5.904;2022-12-18T09:20:35;-3.20;99.90
64143;DHT22;50437;51.970;5.904;2022-12-18T09:23:01;-3.20;99.90
64143;DHT22;50437;51.970;5.904;2022-12-18T09:25:28;-3.00;99.90
64143;DHT22;50437;51.970;5.904;2022-12-18T09:28:01;-2.90;99.90
64143;DHT22;50437;51.970;5.904;2022-12-18T09:30:30;-2.80;99.90
64143;DHT22;50437;51.970;5.904;2022-12-18T09:32:59;-2.70;99.90
64143;DHT22;50437;51.970;5.904;2022-12-18T09:35:27;-2.70;99.90
64143;DHT22;50437;51.970;5.904;2022-12-18T09:37:53;-2.50;99.90
64143;DHT22;50437;51.970;5.904;2022-12-18T09:40:25;-2.50;99.90
64143;DHT22;50437;51.970;5.904;2022-12-18T09:42:57;-2.40;99.90
64143;DHT22;50437;51.970;5.904;2022-12-18T09:45:25;-2.30;99.90
64143;DHT22;50437;51.970;5.904;2022-12-18T09:47:51;-2.30;99.90
64143;DHT22;50437;51.970;5.904;2022-12-18T09:50:34;-2.20;99.90
64143;DHT22;50437;51.970;5.904;2022-12-18T09:53:22;-2.20;99.90
64143;DHT22;50437;51.970;5.904;2022-12-18T09:55:48;-2.10;99.90
64143;DHT22;50437;51.970;5.904;2022-12-18T10:00:52;-2.10;99.90
64143;DHT22;50437;51.970;5.904;2022-12-18T10:03:18;-2.00;99.90
64143;DHT22;50437;51.970;5.904;2022-12-18T10:05:56;-2.00;99.90
64143;DHT22;50437;51.970;5.904;2022-12-18T10:11:20;-2.00;99.90
64143;DHT22;50437;51.970;5.904;2022-12-18T10:13:57;-2.00;99.90
64143;DHT22;50437;51.970;5.904;2022-12-18T10:19:24;-1.80;99.90
64143;DHT22;50437;51.970;5.904;2022-12-18T10:24:25;-1.70;99.90
64143;DHT22;50437;51.970;5.904;2022-12-18T10:26:54;-1.70;99.90
64143;DHT22;50437;51.970;5.904;2022-12-18T10:29:22;-1.60;99.90
64143;DHT22;50437;51.970;5.904;2022-12-18T10:31:51;-1.60;99.90
64143;DHT22;50437;51.970;5.904;2022-12-18T10:34:20;-1.50;99.90
64143;DHT22;50437;51.970;5.904;2022-12-18T10:36:47;-1.50;99.90
64143;DHT22;50437;51.970;5.904;2022-12-18T10:39:17;-1.40;99.90
64143;DHT22;50437;51.970;5.904;2022-12-18T10:41:46;-1.40;99.90
64143;DHT22;50437;51.970;5.904;2022-12-18T10:44:19;-1.30;99.90
64143;DHT22;50437;51.970;5.904;2022-12-18T10:46:46;-1.30;99.90
64143;DHT22;50437;51.970;5.904;2022-12-18T10:49:23;-1.30;99.90
64143;DHT22;50437;51.970;5.904;2022-12-18T10:51:49;-1.30;99.90
64143;DHT22;50437;51.970;5.904;2022-12-18T10:54:17;-1.20;99.90
64143;DHT22;50437;51.970;5.904;2022-12-18T10:56:43;-1.10;99.90
64143;DHT22;50437;51.970;5.904;2022-12-18T10:59:10;-1.20;99.90
64143;DHT22;50437;51.970;5.904;2022-12-18T11:04:16;-1.10;99.90
64143;DHT22;50437;51.970;5.904;2022-12-18T11:07:02;-1.10;99.90
64143;DHT22;50437;51.970;5.904;2022-12-18T11:09:32;-1.00;99.90
64143;DHT22;50437;51.970;5.904;2022-12-18T11:12:04;-1.00;99.90
64143;DHT22;50437;51.970;5.904;2022-12-18T11:14:43;-1.00;99.90
64143;DHT22;50437;51.970;5.904;2022-12-18T11:17:19;-1.10;99.90
64143;DHT22;50437;51.970;5.904;2022-12-18T11:19:48;-1.00;99.90
64143;DHT22;50437;51.970;5.904;2022-12-18T11:22:28;-1.00;99.90
64143;DHT22;50437;51.970;5.904;2022-12-18T11:24:55;-1.00;99.90
64143;DHT22;50437;51.970;5.904;2022-12-18T11:27:22;-1.00;99.90
64143;DHT22;50437;51.970;5.904;2022-12-18T11:29:51;-0.90;99.90
64143;DHT22;50437;51.970;5.904;2022-12-18T11:32:43;-0.90;99.90
64143;DHT22;50437;51.970;5.904;2022-12-18T11:35:25;-0.80;99.90
64143;DHT22;50437;51.970;5.904;2022-12-18T11:37:58;-0.80;99.90
64143;DHT22;50437;51.970;5.904;2022-12-18T11:40:35;-0.80;99.90
64143;DHT22;50437;51.970;5.904;2022-12-18T11:43:18;-0.80;99.90
64143;DHT22;50437;51.970;5.904;2022-12-18T11:45:55;-0.70;99.90
64143;DHT22;50437;51.970;5.904;2022-12-18T11:48:23;-0.70;99.90
64143;DHT22;50437;51.970;5.904;2022-12-18T11:50:52;-0.60;99.90
64143;DHT22;50437;51.970;5.904;2022-12-18T11:53:18;-0.60;99.90
64143;DHT22;50437;51.970;5.904;2022-12-18T11:55:58;-0.60;99.90
64143;DHT22;50437;51.970;5.904;2022-12-18T12:00:56;-0.60;99.90
64143;DHT22;50437;51.970;5.904;2022-12-18T12:03:27;-0.50;99.90
64143;DHT22;50437;51.970;5.904;2022-12-18T12:10:57;-0.40;99.90
64143;DHT22;50437;51.970;5.904;2022-12-18T12:21:16;-0.40;99.90
64143;DHT22;50437;51.970;5.904;2022-12-18T12:26:11;-0.40;99.90
64143;DHT22;50437;51.970;5.904;2022-12-18T12:33:49;-0.30;99.90
64143;DHT22;50437;51.970;5.904;2022-12-18T12:38:45;-0.30;99.90
64143;DHT22;50437;51.970;5.904;2022-12-18T12:41:13;-0.30;99.90
64143;DHT22;50437;51.970;5.904;2022-12-18T12:44:04;-0.30;99.90
64143;DHT22;50437;51.970;5.904;2022-12-18T12:46:32;-0.30;99.90
64143;DHT22;50437;51.970;5.904;2022-12-18T12:49:02;-0.30;99.90
64143;DHT22;50437;51.970;5.904;2022-12-18T12:51:36;-0.30;99.90
64143;DHT22;50437;51.970;5.904;2022-12-18T12:54:04;-0.30;99.90
64143;DHT22;50437;51.970;5.904;2022-12-18T12:59:21;-0.30;99.90
64143;DHT22;50437;51.970;5.904;2022-12-18T13:02:06;-0.30;99.90
64143;DHT22;50437;51.970;5.904;2022-12-18T13:04:42;-0.30;99.90
64143;DHT22;50437;51.970;5.904;2022-12-18T13:12:32;-0.30;99.90
64143;DHT22;50437;51.970;5.904;2022-12-18T13:15:21;-0.30;99.90
64143;DHT22;50437;51.970;5.904;2022-12-18T13:17:47;-0.30;99.90
64143;DHT22;50437;51.970;5.904;2022-12-18T13:20:14;-0.30;99.90
64143;DHT22;50437;51.970;5.904;2022-12-18T13:22:44;-0.30;99.90
64143;DHT22;50437;51.970;5.904;2022-12-18T13:27:57;-0.30;99.90
64143;DHT22;50437;51.970;5.904;2022-12-18T13:43:50;-0.30;99.90
64143;DHT22;50437;51.970;5.904;2022-12-18T13:46:21;-0.30;99.90
64143;DHT22;50437;51.970;5.904;2022-12-18T13:49:18;-0.30;99.90
64143;DHT22;50437;51.970;5.904;2022-12-18T13:51:50;-0.30;99.90
64143;DHT22;50437;51.970;5.904;2022-12-18T13:54:19;-0.30;99.90
64143;DHT22;50437;51.970;5.904;2022-12-18T13:56:46;-0.30;99.20
64143;DHT22;50437;51.970;5.904;2022-12-18T14:01:45;-0.30;99.90
64143;DHT22;50437;51.970;5.904;2022-12-18T14:06:50;-0.30;99.60
64143;DHT22;50437;51.970;5.904;2022-12-18T14:09:24;-0.30;99.20
64143;DHT22;50437;51.970;5.904;2022-12-18T14:11:53;-0.20;98.70
64143;DHT22;50437;51.970;5.904;2022-12-18T14:14:46;-0.20;99.10
64143;DHT22;50437;51.970;5.904;2022-12-18T14:17:15;-0.30;98.60
64143;DHT22;50437;51.970;5.904;2022-12-18T14:19:51;-0.30;98.20
64143;DHT22;50437;51.970;5.904;2022-12-18T14:22:24;-0.20;98.60
64143;DHT22;50437;51.970;5.904;2022-12-18T14:27:45;-0.30;98.20
64143;DHT22;50437;51.970;5.904;2022-12-18T14:30:33;-0.20;98.00
64143;DHT22;50437;51.970;5.904;2022-12-18T14:33:04;-0.30;98.10
64143;DHT22;50437;51.970;5.904;2022-12-18T14:35:34;-0.30;98.80
64143;DHT22;50437;51.970;5.904;2022-12-18T14:38:11;-0.30;98.00
64143;DHT22;50437;51.970;5.904;2022-12-18T14:40:44;-0.20;98.10
64143;DHT22;50437;51.970;5.904;2022-12-18T14:43:12;-0.20;97.90
64143;DHT22;50437;51.970;5.904;2022-12-18T14:45:39;-0.30;98.30
64143;DHT22;50437;51.970;5.904;2022-12-18T14:51:00;-0.20;98.50
64143;DHT22;50437;51.970;5.904;2022-12-18T14:53:39;-0.30;98.60
64143;DHT22;50437;51.970;5.904;2022-12-18T14:59:23;-0.20;98.10
64143;DHT22;50437;51.970;5.904;2022-12-18T15:07:02;-0.20;97.40
64143;DHT22;50437;51.970;5.904;2022-12-18T15:09:28;-0.20;97.80
64143;DHT22;50437;51.970;5.904;2022-12-18T15:11:58;-0.30;97.80
64143;DHT22;50437;51.970;5.904;2022-12-18T15:14:35;-0.30;97.60
64143;DHT22;50437;51.970;5.904;2022-12-18T15:17:14;-0.30;97.20
64143;DHT22;50437;51.970;5.904;2022-12-18T15:19:42;-0.30;97.60
64143;DHT22;50437;51.970;5.904;2022-12-18T15:22:29;-0.30;97.70
64143;DHT22;50437;51.970;5.904;2022-12-18T15:24:55;-0.30;97.20
64143;DHT22;50437;51.970;5.904;2022-12-18T15:27:32;-0.30;97.50
64143;DHT22;50437;51.970;5.904;2022-12-18T15:32:31;-0.30;97.80
64143;DHT22;50437;51.970;5.904;2022-12-18T15:35:07;-0.40;98.10
64143;DHT22;50437;51.970;5.904;2022-12-18T15:37:37;-0.40;97.70
64143;DHT22;50437;51.970;5.904;2022-12-18T15:40:04;-0.40;98.10
64143;DHT22;50437;51.970;5.904;2022-12-18T15:42:31;-0.40;98.00
64143;DHT22;50437;51.970;5.904;2022-12-18T15:45:15;-0.40;97.70
64143;DHT22;50437;51.970;5.904;2022-12-18T15:47:41;-0.40;97.80
64143;DHT22;50437;51.970;5.904;2022-12-18T15:50:13;-0.40;97.10
64143;DHT22;50437;51.970;5.904;2022-12-18T15:52:41;-0.40;97.40
64143;DHT22;50437;51.970;5.904;2022-12-18T15:55:18;-0.40;97.50
64143;DHT22;50437;51.970;5.904;2022-12-18T15:58:04;-0.40;98.00
64143;DHT22;50437;51.970;5.904;2022-12-18T16:00:30;-0.40;97.80
64143;DHT22;50437;51.970;5.904;2022-12-18T16:02:57;-0.40;97.30
64143;DHT22;50437;51.970;5.904;2022-12-18T16:05:23;-0.40;97.70
64143;DHT22;50437;51.970;5.904;2022-12-18T16:07:49;-0.40;97.50
64143;DHT22;50437;51.970;5.904;2022-12-18T16:10:15;-0.50;97.70
64143;DHT22;50437;51.970;5.904;2022-12-18T16:12:41;-0.40;97.20
64143;DHT22;50437;51.970;5.904;2022-12-18T16:15:09;-0.50;97.30
64143;DHT22;50437;51.970;5.904;2022-12-18T16:17:36;-0.40;96.60
64143;DHT22;50437;51.970;5.904;2022-12-18T16:20:02;-0.50;96.50
64143;DHT22;50437;51.970;5.904;2022-12-18T16:22:28;-0.40;96.30
64143;DHT22;50437;51.970;5.904;2022-12-18T16:24:55;-0.50;96.90
64143;DHT22;50437;51.970;5.904;2022-12-18T16:27:21;-0.50;96.80
64143;DHT22;50437;51.970;5.904;2022-12-18T16:29:48;-0.50;96.80
64143;DHT22;50437;51.970;5.904;2022-12-18T16:32:15;-0.50;96.90
64143;DHT22;50437;51.970;5.904;2022-12-18T16:34:41;-0.50;97.20
64143;DHT22;50437;51.970;5.904;2022-12-18T16:37:08;-0.50;97.00
64143;DHT22;50437;51.970;5.904;2022-12-18T16:39:34;-0.50;96.90
64143;DHT22;50437;51.970;5.904;2022-12-18T16:42:11;-0.60;96.90
64143;DHT22;50437;51.970;5.904;2022-12-18T16:44:42;-0.50;97.30
64143;DHT22;50437;51.970;5.904;2022-12-18T16:47:08;-0.50;96.80
64143;DHT22;50437;51.970;5.904;2022-12-18T16:49:34;-0.60;96.60
64143;DHT22;50437;51.970;5.904;2022-12-18T16:52:02;-0.50;96.70
64143;DHT22;50437;51.970;5.904;2022-12-18T16:54:28;-0.50;96.80
64143;DHT22;50437;51.970;5.904;2022-12-18T16:56:58;-0.60;97.30
64143;DHT22;50437;51.970;5.904;2022-12-18T16:59:26;-0.60;97.20
64143;DHT22;50437;51.970;5.904;2022-12-18T17:01:52;-0.60;96.70
64143;DHT22;50437;51.970;5.904;2022-12-18T17:04:21;-0.50;97.10
64143;DHT22;50437;51.970;5.904;2022-12-18T17:06:47;-0.50;97.40
64143;DHT22;50437;51.970;5.904;2022-12-18T17:09:18;-0.60;97.20
64143;DHT22;50437;51.970;5.904;2022-12-18T17:11:53;-0.60;97.70
64143;DHT22;50437;51.970;5.904;2022-12-18T17:14:22;-0.60;97.50
64143;DHT22;50437;51.970;5.904;2022-12-18T17:16:52;-0.50;98.00
64143;DHT22;50437;51.970;5.904;2022-12-18T17:19:19;-0.60;98.10
64143;DHT22;50437;51.970;5.904;2022-12-18T17:21:47;-0.60;98.00
64143;DHT22;50437;51.970;5.904;2022-12-18T17:24:13;-0.60;97.60
64143;DHT22;50437;51.970;5.904;2022-12-18T17:26:39;-0.50;98.30
64143;DHT22;50437;51.970;5.904;2022-12-18T17:29:05;-0.60;98.00
64143;DHT22;50437;51.970;5.904;2022-12-18T17:31:32;-0.60;98.20
64143;DHT22;50437;51.970;5.904;2022-12-18T17:34:01;-0.60;98.40